• Join FlightAware (Why Join?)
  • Login
  • US Flag 
06:11PM EDT


 

Airport Tracker/Info


-or-


 

Live Flight TrackerFlight Track Log ✈ UAL139 ✈ 26-Aug-2013 ✈ KDEN - RJAA / NRT

Flight Track Log - Related Links

Times and Time Zones

All times are in EDT time to prevent confusion due to time zone crossing. See the UAL139 flight status page for this flight to view local times or setup timezone preferences in your user account.

Time Position Orientation Groundspeed Altitude Reporting Facility
EDT Latitude Longitude Course Direction KTS MPH feet Rate Location/Type
03:03PM 39.9100 -104.6990 357° North 212 244 6,100  Level FlightAware
03:03PM 39.9300 -104.7070 343° North 231 266 6,600 1,140 Climbing FlightAware
03:03PM 39.9470 -104.7140 342° North 249 287 6,800 900 Climbing FlightAware
03:04PM 39.9800 -104.7270 343° North 279 321 7,300 1,500 Climbing FlightAware
03:04PM 40.0050 -104.7370 343° North 288 331 8,000 2,280 Climbing FlightAware
03:04PM 40.0260 -104.7460 342° North 291 335 8,700 2,460 Climbing FlightAware
03:05PM 40.0470 -104.7570 338° Northwest 288 331 9,400 2,280 Climbing FlightAware
03:05PM 40.0560 -104.7660 323° Northwest 288 331 9,700 2,400 Climbing FlightAware
03:05PM 40.0670 -104.7800 316° Northwest 287 330 10,200 1,920 Climbing FlightAware
03:05PM 40.0790 -104.8040 303° West 296 341 10,600 1,260 Climbing FlightAware
03:05PM 40.0830 -104.8250 284° West 310 357 10,800 1,200 Climbing FlightAware
03:06PM 40.0810 -104.8890 268° West 338 389 11,500 1,620 Climbing FlightAware
03:07PM 40.0650 -104.9700 256° West 355 409 12,800 1,920 Climbing FlightAware
03:07PM 40.0560 -105.0390 260° West 363 418 13,900 2,100 Climbing FlightAware
03:08PM 40.0470 -105.1170 261° West 369 425 15,200 2,040 Climbing FlightAware
03:08PM 40.0370 -105.1920 260° West 377 434 16,300 1,860 Climbing FlightAware
03:09PM 40.0280 -105.2690 261° West 383 441 17,400 1,860 Climbing FlightAware
03:09PM 40.0150 -105.3610 260° West 393 452 18,600 1,800 Climbing FlightAware
03:10PM 40.0060 -105.4370 261° West 396 456 19,600 1,680 Climbing FlightAware
03:11PM 39.9960 -105.5120 260° West 406 467 20,400 1,380 Climbing FlightAware
03:11PM 39.9820 -105.6280 261° West 418 481 21,500 1,080 Climbing FlightAware
03:12PM 39.9740 -105.7090 263° West 436 502 21,900 1,080 Climbing FlightAware
03:12PM 39.9720 -105.8030 268° West 443 510 22,700 1,320 Climbing FlightAware
03:13PM 39.9730 -105.9010 271° West 451 519 23,500 1,260 Climbing FlightAware
03:14PM 39.9790 -106.0000 275° West 457 526 24,300 1,260 Climbing FlightAware
03:14PM 39.9840 -106.0970 274° West 463 533 25,000 1,140 Climbing FlightAware
03:15PM 39.9900 -106.1970 275° West 467 537 25,700 1,200 Climbing FlightAware
03:15PM 39.9950 -106.2950 274° West 473 544 26,400 1,080 Climbing FlightAware
03:16PM 40.0000 -106.3990 274° West 478 550 27,000 1,020 Climbing FlightAware
03:16PM 40.0080 -106.4780 278° West 485 558 27,500 1,020 Climbing FlightAware
03:17PM 40.0240 -106.5890 281° West 490 564 28,200 1,020 Climbing FlightAware
03:18PM 40.0390 -106.6920 281° West 492 566 28,800 1,020 Climbing FlightAware
03:18PM 40.0530 -106.7940 280° West 495 570 29,400 1,080 Climbing FlightAware
03:19PM 40.0690 -106.9040 281° West 494 568 30,100 600 Climbing FlightAware
03:20PM 40.0820 -106.9980 280° West 497 572 30,200 60 Climbing FlightAware
03:20PM 40.0940 -107.0910 280° West 497 572 30,200 1,080 Level FlightAware
03:21PM 40.1160 -107.2420 281° West 503 579 31,800 1,800 Climbing FlightAware
03:22PM 40.1330 -107.3670 280° West 500 575 32,700 1,500 Climbing FlightAware
03:22PM 40.1480 -107.4780 280° West 492 566 33,600 1,080 Climbing FlightAware
03:23PM 40.1620 -107.5810 280° West 486 559 34,000 300 Climbing FlightAware
03:23PM 40.1790 -107.7030 280° West 492 566 34,000  Level FlightAware
03:24PM 40.1920 -107.8030 280° West 491 565 34,000  Level FlightAware
03:25PM 40.2050 -107.9030 280° West 492 566 34,000 300 Level FlightAware
03:25PM 40.2170 -107.9930 280° West 493 567 34,400 1,200 Climbing FlightAware
03:26PM 40.2310 -108.0960 280° West 484 557 35,400 1,320 Climbing FlightAware
03:26PM 40.2420 -108.1830 279° West 481 554 35,900 1,020 Climbing FlightAware
03:27PM 40.2580 -108.3030 280° West 474 545 36,700 1,080 Climbing FlightAware
03:27PM 40.2690 -108.3960 279° West 471 542 37,200 780 Climbing FlightAware
03:28PM 40.2800 -108.4820 280° West 469 540 37,600 600 Climbing FlightAware
03:29PM 40.2950 -108.5960 280° West 467 537 38,000 300 Climbing FlightAware
03:29PM 40.3040 -108.6690 279° West 469 540 38,000  Level FlightAware
03:30PM 40.3200 -108.8020 279° West 470 541 38,000  Level FlightAware
03:30PM 40.3330 -108.9000 280° West 469 540 38,000  Level FlightAware
03:31PM 40.3430 -108.9830 279° West 469 540 38,000  Level FlightAware
03:32PM 40.3550 -109.0850 279° West 469 540 38,000  Level FlightAware
03:32PM 40.3660 -109.1770 279° West 470 541 38,000  Level FlightAware
03:33PM 40.3800 -109.2940 279° West 470 541 38,000  Level FlightAware
03:33PM 40.3910 -109.3840 279° West 467 537 38,000  Level FlightAware
03:34PM 40.4030 -109.4890 279° West 468 539 38,000  Level FlightAware
03:35PM 40.4140 -109.5770 279° West 469 540 38,000  Level FlightAware
03:35PM 40.4270 -109.6920 278° West 466 536 38,000  Level FlightAware
03:36PM 40.4370 -109.7760 279° West 467 537 38,000  Level FlightAware
03:37PM 40.4540 -109.9290 278° West 468 539 38,000  Level FlightAware
03:37PM 40.4650 -110.0230 279° West 466 536 38,000  Level FlightAware
03:38PM 40.4783 -110.1420 278° West 465 535 38,000  Level FlightAware ADS-B
03:38PM 40.4879 -110.2270 278° West 465 535 38,000  Level FlightAware ADS-B
03:39PM 40.4971 -110.3110 278° West 465 535 38,000  Level FlightAware ADS-B
03:39PM 40.5064 -110.3960 278° West 464 534 38,000  Level FlightAware ADS-B
03:40PM 40.5155 -110.4790 278° West 464 534 38,000  Level FlightAware ADS-B
03:40PM 40.5247 -110.5630 278° West 466 536 38,000  Level FlightAware ADS-B
03:41PM 40.5340 -110.6500 278° West 467 537 38,000  Level FlightAware ADS-B
03:41PM 40.5431 -110.7360 278° West 467 537 38,000  Level FlightAware ADS-B
03:42PM 40.5522 -110.8220 278° West 466 536 38,000  Level FlightAware ADS-B
03:42PM 40.5626 -110.9210 278° West 466 536 38,000  Level FlightAware ADS-B
03:43PM 40.5723 -111.0130 278° West 465 535 38,000  Level FlightAware ADS-B
03:44PM 40.5811 -111.0980 278° West 463 533 38,000  Level FlightAware ADS-B
03:44PM 40.5898 -111.1820 278° West 464 534 38,000  Level FlightAware ADS-B
03:45PM 40.5990 -111.2740 278° West 466 536 38,000  Level FlightAware ADS-B
03:45PM 40.6077 -111.3590 278° West 464 534 38,000  Level FlightAware ADS-B
03:46PM 40.6162 -111.4440 278° West 464 534 38,000  Level FlightAware ADS-B
03:46PM 40.6247 -111.5300 277° West 463 533 38,000  Level FlightAware ADS-B
03:47PM 40.6332 -111.6150 278° West 463 533 38,000  Level FlightAware ADS-B
03:47PM 40.6415 -111.7000 277° West 464 534 38,000  Level FlightAware ADS-B
03:48PM 40.6500 -111.7880 277° West 466 536 38,000  Level FlightAware ADS-B
03:48PM 40.6581 -111.8710 277° West 460 529 38,000  Level FlightAware ADS-B
03:49PM 40.6664 -111.9570 277° West 460 529 38,000  Level FlightAware ADS-B
03:49PM 40.6743 -112.0410 277° West 460 529 38,000  Level FlightAware ADS-B
03:50PM 40.6822 -112.1260 277° West 460 529 38,000  Level FlightAware ADS-B
03:50PM 40.6866 -112.1890 275° West 458 527 38,000  Level FlightAware ADS-B
03:51PM 40.6895 -112.2720 273° West 457 526 38,000  Level FlightAware ADS-B
03:51PM 40.6910 -112.3570 271° West 457 526 38,000  Level FlightAware ADS-B
03:52PM 40.6923 -112.4410 271° West 456 525 38,000  Level FlightAware ADS-B
03:52PM 40.6936 -112.5250 271° West 455 524 38,000  Level FlightAware ADS-B
03:53PM 40.6957 -112.6100 272° West 455 524 38,000  Level FlightAware ADS-B
03:53PM 40.6989 -112.6970 273° West 451 519 38,000  Level FlightAware ADS-B
03:54PM 40.7016 -112.7820 272° West 449 517 38,000  Level FlightAware ADS-B
03:54PM 40.7040 -112.8640 272° West 449 517 38,000  Level FlightAware ADS-B
03:55PM 40.7068 -112.9640 272° West 449 517 38,000  Level FlightAware ADS-B
03:55PM 40.7097 -113.0710 272° West 448 516 38,000  Level FlightAware ADS-B
03:56PM 40.7137 -113.2280 272° West 448 516 38,000  Level FlightAware ADS-B
03:57PM 40.7158 -113.3110 272° West 446 513 38,000  Level FlightAware ADS-B
03:57PM 40.7179 -113.3950 272° West 445 512 38,000  Level FlightAware ADS-B
03:58PM 40.7199 -113.4760 272° West 444 511 38,000  Level FlightAware ADS-B
03:59PM 40.7230 -113.6140 272° West 445 512 38,000  Level FlightAware ADS-B
03:59PM 40.7248 -113.6960 272° West 446 513 38,000  Level FlightAware ADS-B
04:00PM 40.7292 -113.7700 275° West 454 522 38,000  Level FlightAware ADS-B
04:00PM 40.7398 -113.8540 279° West 460 529 38,000  Level FlightAware ADS-B
04:01PM 40.7535 -113.9510 281° West 460 529 38,000  Level FlightAware ADS-B
04:01PM 40.7657 -114.0380 281° West 458 527 38,000  Level FlightAware ADS-B
04:02PM 40.7777 -114.1250 280° West 456 525 38,000  Level FlightAware ADS-B
04:02PM 40.7893 -114.2090 280° West 456 525 38,000  Level FlightAware ADS-B
04:03PM 40.7940 -114.2530 278° West 457 526 38,000  Level FlightAware
04:03PM 40.8143 -114.3910 281° West 457 526 38,000  Level FlightAware ADS-B
04:04PM 40.8255 -114.4730 280° West 457 526 38,000  Level FlightAware ADS-B
04:05PM 40.8370 -114.5590 280° West 458 527 38,000  Level FlightAware ADS-B
04:05PM 40.8481 -114.6410 280° West 458 527 38,000  Level FlightAware ADS-B
04:06PM 40.8590 -114.7300 279° West 457 526 38,000  Level FlightAware
04:06PM 40.8774 -114.8610 281° West 458 527 38,000  Level FlightAware ADS-B
04:07PM 40.8820 -114.8980 279° West 457 526 38,000  Level FlightAware
04:08PM 40.8930 -114.9820 280° West 457 526 38,000  Level FlightAware
04:08PM 40.9040 -115.0670 280° West 457 526 38,000  Level FlightAware
04:09PM 40.9160 -115.1510 281° West 457 526 38,000  Level FlightAware
04:09PM 40.9368 -115.3190 279° West 451 519 38,000  Level FlightAware ADS-B
04:10PM 40.9482 -115.4090 280° West 452 520 38,000  Level FlightAware ADS-B
04:10PM 40.9603 -115.5050 280° West 452 520 38,000  Level FlightAware ADS-B
04:11PM 40.9570 -115.4600 96° East 457 526 38,000  Level FlightAware
04:12PM 40.9750 -115.5960 280° West 457 526 38,000  Level FlightAware
04:13PM 40.9860 -115.6810 280° West 457 526 38,000  Level FlightAware
04:13PM 40.9980 -115.7720 280° West 457 526 38,000  Level FlightAware
04:14PM 41.0276 -116.0500 278° West 450 518 38,000  Level FlightAware ADS-B
04:19PM 41.1370 -116.9930 279° West 456 525 38,000  Level FlightAware
04:20PM 41.1490 -117.0930 279° West 456 525 38,000  Level FlightAware
04:21PM 41.1590 -117.1840 278° West 457 526 38,000  Level FlightAware
04:21PM 41.1700 -117.2860 278° West 458 527 38,000  Level FlightAware
04:22PM 41.1810 -117.3890 278° West 461 531 38,000  Level FlightAware
04:22PM 41.1910 -117.4800 278° West 462 532 38,000  Level FlightAware
04:23PM 41.2030 -117.5890 278° West 461 531 38,000  Level FlightAware
04:23PM 41.2110 -117.6680 278° West 463 533 38,000  Level FlightAware
04:24PM 41.2220 -117.7750 278° West 461 531 38,000  Level FlightAware
04:25PM 41.2330 -117.8810 278° West 460 529 38,000  Level FlightAware
04:25PM 41.2430 -117.9710 278° West 461 531 38,000  Level FlightAware
04:26PM 41.2530 -118.0720 278° West 461 531 38,000  Level FlightAware
04:26PM 41.2630 -118.1700 278° West 460 529 38,000  Level FlightAware
04:27PM 41.2730 -118.2740 277° West 461 531 38,000  Level FlightAware
04:28PM 41.2820 -118.3580 278° West 458 527 38,000  Level FlightAware
04:28PM 41.2900 -118.4410 277° West 456 525 38,000  Level FlightAware
04:29PM 41.3000 -118.5410 278° West 463 533 38,000  Level FlightAware
04:29PM 41.3090 -118.6380 277° West 467 537 38,000  Level FlightAware
04:30PM 41.3260 -118.8070 278° West 469 540 38,000  Level FlightAware
04:31PM 41.3340 -118.8920 277° West 473 544 38,000  Level FlightAware
04:31PM 41.3450 -119.0120 277° West 475 547 38,000  Level FlightAware
04:32PM 41.3540 -119.1030 278° West 474 545 38,000  Level FlightAware
04:33PM 41.3660 -119.2360 277° West 471 542 38,000  Level FlightAware
04:33PM 41.3750 -119.3410 277° West 469 540 38,000  Level FlightAware
04:34PM 41.3820 -119.4100 278° West 470 541 38,000  Level FlightAware
04:34PM 41.3900 -119.5060 276° West 471 542 38,000  Level FlightAware
04:35PM 41.4000 -119.6170 277° West 465 535 38,000  Level FlightAware
04:36PM 41.4090 -119.7210 277° West 465 535 38,000  Level FlightAware
04:36PM 41.4160 -119.8030 277° West 464 534 38,000  Level FlightAware
04:37PM 41.4250 -119.9070 277° West 459 528 38,000  Level FlightAware
04:37PM 41.4410 -120.0060 282° West 470 541 38,000  Level FlightAware
04:38PM 41.4710 -120.0990 293° West 475 547 38,000  Level FlightAware
04:38PM 41.5130 -120.1990 299° West 474 545 38,000  Level FlightAware
04:39PM 41.5320 -120.2800 287° West 470 541 38,000  Level FlightAware
04:40PM 41.5550 -120.3810 287° West 478 550 38,000  Level FlightAware
04:40PM 41.5770 -120.4800 287° West 478 550 38,000  Level FlightAware
04:41PM 41.5990 -120.5790 287° West 477 549 38,000  Level FlightAware
04:41PM 41.6220 -120.6840 286° West 466 536 38,000  Level FlightAware
04:42PM 41.6400 -120.7660 286° West 469 540 38,000  Level FlightAware
04:42PM 41.6610 -120.8630 286° West 466 536 38,000  Level FlightAware
04:43PM 41.6840 -120.9670 287° West 466 536 38,000  Level FlightAware
04:44PM 41.7050 -121.0670 286° West 468 539 38,000  Level FlightAware
04:44PM 41.7250 -121.1620 286° West 468 539 38,000  Level FlightAware
04:44PM 41.7290 -121.2120 276° West 459 528 38,000  Level FlightAware
04:45PM 41.7230 -121.2920 264° West 451 519 38,000  Level FlightAware
04:46PM 41.7110 -121.3850 260° West 449 517 38,000  Level FlightAware
04:46PM 41.6950 -121.4980 259° West 449 517 38,000  Level FlightAware
04:47PM 41.6790 -121.6080 259° West 449 517 38,000  Level FlightAware
04:48PM 41.6650 -121.7100 260° West 454 522 38,000  Level FlightAware
04:48PM 41.6510 -121.8030 259° West 452 520 38,000  Level FlightAware
04:49PM 41.6370 -121.8950 259° West 449 517 38,000  Level FlightAware
04:49PM 41.6220 -121.9930 258° West 447 514 38,000  Level FlightAware
04:50PM 41.6060 -122.0800 256° West 446 513 38,000  Level FlightAware
04:50PM 41.5880 -122.1730 256° West 443 510 38,000  Level FlightAware
04:51PM 41.5630 -122.2700 251° West 447 514 38,000  Level FlightAware
04:52PM 41.5500 -122.3610 259° West 450 518 38,000  Level FlightAware
04:52PM 41.5350 -122.4540 258° West 449 517 38,000  Level FlightAware
04:53PM 41.5200 -122.5360 256° West 440 506 38,000  Level FlightAware
04:53PM 41.4970 -122.6550 256° West 439 505 38,000  Level FlightAware
04:54PM 41.4790 -122.7540 256° West 439 505 38,000  Level FlightAware
04:55PM 41.4570 -122.8600 255° West 439 505 38,000  Level FlightAware
04:55PM 41.4360 -122.9720 256° West 433 498 38,000  Level FlightAware
04:56PM 41.4200 -123.0530 255° West 437 503 38,000  Level FlightAware
04:57PM 41.4000 -123.1550 255° West 436 502 38,000  Level FlightAware
04:57PM 41.3810 -123.2500 255° West 438 504 38,000  Level FlightAware
04:58PM 41.3570 -123.3680 255° West 439 505 38,000  Level FlightAware
04:59PM 41.3400 -123.4580 256° West 437 503 38,000  Level FlightAware
04:59PM 41.3170 -123.5700 255° West 436 502 38,000  Level FlightAware
05:00PM 41.2960 -123.6760 255° West 438 504 38,000  Level FlightAware
05:00PM 41.2800 -123.7550 255° West 441 507 38,000  Level FlightAware
05:01PM 41.2570 -123.8640 254° West 441 507 38,000  Level FlightAware
05:02PM 41.2300 -123.9960 255° West 442 509 38,000  Level FlightAware
05:03PM 41.2120 -124.0780 254° West 442 509 38,000  Level FlightAware
05:03PM 41.1950 -124.1580 254° West 442 509 38,000  Level FlightAware
05:04PM 41.1630 -124.3210 255° West 442 509 38,000  Level FlightAware
05:05PM 41.1440 -124.4130 255° West 447 514 38,000  Level FlightAware
05:05PM 41.1350 -124.5010 262° West 448 516 38,000  Level FlightAware
05:06PM 41.1270 -124.5840 263° West 448 516 38,000  Level FlightAware
05:06PM 41.1190 -124.6680 263° West 448 516 38,000  Level FlightAware
05:07PM 41.1120 -124.7490 263° West 448 516 38,000  Level FlightAware
05:08PM 41.1050 -124.8280 263° West 448 516 38,000  Level FlightAware
05:08PM 41.0970 -124.9120 263° West 448 516 38,000  Level FlightAware
05:09PM 41.0890 -124.9950 263° West 448 516 38,000  Level FlightAware
05:09PM 41.0810 -125.0830 263° West 448 516 38,000  Level FlightAware
05:10PM 41.0730 -125.1670 263° West 448 516 38,000  Level FlightAware
05:11PM 41.0660 -125.2500 264° West 448 516 38,000  Level FlightAware
05:11PM 41.0570 -125.3450 263° West 448 516 38,000  Level FlightAware
05:12PM 41.0490 -125.4290 263° West 448 516 38,000  Level FlightAware
05:13PM 41.0410 -125.5120 263° West 448 516 38,000  Level FlightAware
05:13PM 41.0340 -125.5960 264° West 448 516 38,000  Level FlightAware
05:14PM 41.0260 -125.6820 263° West 448 516 38,000  Level FlightAware
05:14PM 41.0180 -125.7650 263° West 448 516 38,000  Level FlightAware
05:16PM 42.1864 -125.6175 263° West 461 531 38,000  Level Seattle Center
05:17PM 42.2878 -125.7217 323° Northwest 458 527 38,000  Level Seattle Center
05:18PM 42.3883 -125.8281 322° Northwest 459 528 38,000  Level Seattle Center
05:19PM 42.4886 -125.9353 322° Northwest 459 528 38,000  Level Seattle Center
05:20PM 42.5892 -126.0433 322° Northwest 461 531 38,000 -60 Level Seattle Center
05:21PM 42.6903 -126.1508 322° Northwest 463 533 37,900 -60 Descending Seattle Center
05:22PM 42.7594 -126.2931 304° West 453 521 37,900  Level Seattle Center
05:24PM 42.8666 -126.5901 296° West  Level FlightAware Approximate
05:24PM 42.9167 -126.7167 298° West 448 516 38,000  Level Oakland Oceanic (ODAPS)
05:28PM 43.1000 -127.2000 297° West 447 514 38,000  Level Oakland Oceanic (ODAPS)
05:30PM 43.2670 -127.6410 297° West 38,000  Level FlightAware
05:31PM 43.2642 -127.6369 297° West 448 516 38,000  Level FlightAware Transoceanic
05:33PM 43.3880 -127.9735 297° West  Level FlightAware Approximate
05:34PM 43.4408 -128.1175 297° West 447 514 38,000  Level FlightAware Transoceanic
05:35PM 43.4969 -128.2714 297° West 447 514 38,000  Level FlightAware Transoceanic
05:36PM 43.5528 -128.4256 297° West 447 514 38,000  Level FlightAware Transoceanic
05:37PM 43.6084 -128.5801 296° West 447 514 38,000  Level FlightAware Transoceanic
05:38PM 43.6639 -128.7349 296° West 447 514 38,000  Level FlightAware Transoceanic
05:39PM 43.7192 -128.8899 296° West 447 514 38,000  Level FlightAware Transoceanic
05:40PM 43.7742 -129.0453 296° West 447 514 38,000  Level FlightAware Transoceanic
05:41PM 43.8290 -129.2009 296° West 447 514 38,000  Level FlightAware Transoceanic
05:42PM 43.8837 -129.3568 296° West 447 514 38,000  Level FlightAware Transoceanic
05:42PM 43.8667 -129.3167 296° West 447 514 38,000  Level Oakland Oceanic (ODAPS)
05:43PM 43.9381 -129.5130 296° West 447 514 38,000  Level FlightAware Transoceanic
05:44PM 43.9922 -129.6695 296° West 447 514 38,000  Level FlightAware Transoceanic
05:45PM 44.0462 -129.8263 296° West 447 514 38,000  Level FlightAware Transoceanic
05:46PM 44.1000 -129.9833 289° West 447 514 38,000  Level FlightAware Transoceanic
05:47PM 44.1400 -130.1501 288° West 447 514 38,000  Level FlightAware Transoceanic
05:48PM 44.1798 -130.3171 288° West 447 514 38,000  Level FlightAware Transoceanic
05:49PM 44.2193 -130.4843 288° West 447 514 38,000  Level FlightAware Transoceanic
05:49PM 44.1000 -129.9833 289° West 455 524 38,000  Level Oakland Oceanic (ODAPS)
05:50PM 44.2586 -130.6518 288° West 447 514 38,000  Level FlightAware Transoceanic
05:51PM 44.2977 -130.8194 288° West 447 514 38,000  Level FlightAware Transoceanic
05:52PM 44.3365 -130.9873 288° West 447 514 38,000  Level FlightAware Transoceanic
05:53PM 44.3750 -131.1555 288° West 447 514 38,000  Level FlightAware Transoceanic
05:54PM 44.4133 -131.3238 288° West 447 514 38,000  Level FlightAware Transoceanic
05:55PM 44.4514 -131.4924 287° West 455 524 38,000  Level FlightAware Transoceanic
05:55PM 44.4667 -131.5667 287° West 458 527 38,000  Level Oakland Oceanic (ODAPS)
05:56PM 44.4892 -131.6611 287° West 455 524 38,000  Level FlightAware Transoceanic
05:57PM 44.5267 -131.8301 287° West 455 524 38,000  Level FlightAware Transoceanic
05:58PM 44.5641 -131.9993 287° West 455 524 38,000  Level FlightAware Transoceanic
05:59PM 44.6011 -132.1688 287° West 455 524 38,000  Level FlightAware Transoceanic
06:00PM 44.6379 -132.3384 287° West 455 524 38,000  Level FlightAware Transoceanic
06:01PM 44.6745 -132.5083 287° West 455 524 38,000  Level FlightAware Transoceanic
06:02PM 44.6918 -132.5950 287° West 458 527 38,000  Level FlightAware Transoceanic
06:03PM 44.7285 -132.7672 287° West 458 527 38,000  Level FlightAware Transoceanic
06:04PM 44.7648 -132.9396 286° West 458 527 38,000  Level FlightAware Transoceanic
06:05PM 44.8009 -133.1122 286° West 458 527 38,000  Level FlightAware Transoceanic
06:06PM 44.8368 -133.2850 286° West 458 527 38,000  Level FlightAware Transoceanic
06:07PM 44.8724 -133.4580 286° West 458 527 38,000  Level FlightAware Transoceanic
06:08PM 44.9077 -133.6312 286° West 458 527 38,000  Level FlightAware Transoceanic
06:09PM 44.9428 -133.8047 286° West 458 527 38,000  Level FlightAware Transoceanic
06:09PM 44.9667 -133.9667 286° West 469 540 38,000  Level Oakland Oceanic (ODAPS)
06:10PM 44.9776 -133.9783 286° West 458 527 38,000  Level FlightAware Transoceanic
06:11PM 45.0121 -134.1522 286° West 458 527 38,000  Level FlightAware Transoceanic
06:12PM 45.0464 -134.3263 286° West 458 527 38,000  Level FlightAware Transoceanic
06:13PM 45.0804 -134.5006 285° West 458 527 38,000  Level FlightAware Transoceanic
06:14PM 45.1141 -134.6751 285° West 458 527 38,000  Level FlightAware Transoceanic
06:15PM 45.1476 -134.8498 285° West 458 527 38,000  Level FlightAware Transoceanic
06:16PM 45.1780 -135.0468 285° West 469 540 38,000  Level FlightAware Transoceanic
06:17PM 45.2122 -135.2276 285° West 469 540 38,000  Level FlightAware Transoceanic
06:18PM 45.2462 -135.4086 285° West 469 540 38,000  Level FlightAware Transoceanic
06:19PM 45.2798 -135.5898 285° West 469 540 38,000  Level FlightAware Transoceanic
06:20PM 45.3132 -135.7712 285° West 469 540 38,000  Level FlightAware Transoceanic
06:21PM 45.3463 -135.9529 284° West 469 540 38,000  Level FlightAware Transoceanic
06:22PM 45.3791 -136.1347 284° West 469 540 38,000  Level FlightAware Transoceanic
06:23PM 45.4116 -136.3168 284° West 469 540 38,000  Level FlightAware Transoceanic
06:23PM 45.4333 -136.4500 284° West 470 541 38,000  Level Oakland Oceanic (ODAPS)
06:24PM 45.4438 -136.4991 284° West 469 540 38,000  Level FlightAware Transoceanic
06:25PM 45.4757 -136.6815 284° West 469 540 38,000  Level FlightAware Transoceanic
06:26PM 45.5073 -136.8642 284° West 469 540 38,000  Level FlightAware Transoceanic
06:27PM 45.5387 -137.0471 284° West 469 540 38,000  Level FlightAware Transoceanic
06:28PM 45.5697 -137.2302 284° West 469 540 38,000  Level FlightAware Transoceanic
06:29PM 45.6148 -137.5074 283° West 470 541 38,000  Level FlightAware Transoceanic
06:30PM 45.6441 -137.6842 283° West 470 541 38,000  Level FlightAware Transoceanic
06:31PM 45.6732 -137.8613 283° West 470 541 38,000  Level FlightAware Transoceanic
06:32PM 45.7019 -138.0386 283° West 470 541 38,000  Level FlightAware Transoceanic
06:33PM 45.7304 -138.2160 283° West 470 541 38,000  Level FlightAware Transoceanic
06:34PM 45.7586 -138.3936 283° West 470 541 38,000  Level FlightAware Transoceanic
06:35PM 45.7865 -138.5714 283° West 470 541 38,000  Level FlightAware Transoceanic
06:36PM 45.8142 -138.7494 283° West 470 541 38,000  Level FlightAware Transoceanic
06:37PM 45.8416 -138.9275 282° West 470 541 38,000 660 Level FlightAware Transoceanic
06:37PM 45.8500 -138.9500 282° West 467 537 39,000  Climbing Oakland Oceanic (ODAPS)
06:38PM 45.8687 -139.1058 282° West 470 541 38,000 -660 Descending FlightAware Transoceanic
06:39PM 45.8955 -139.2843 282° West 470 541 38,000  Level FlightAware Transoceanic
06:40PM 45.9220 -139.4630 282° West 470 541 38,000  Level FlightAware Transoceanic
06:41PM 45.9483 -139.6418 282° West 470 541 38,000  Level FlightAware Transoceanic
06:42PM 45.9743 -139.8208 282° West 470 541 38,000 480 Level FlightAware Transoceanic
06:43PM 46.0000 -140.0000 265° West 467 537 39,000 780 Climbing FlightAware Transoceanic
06:43PM 46.0000 -140.0000 265° West 471 542 39,000  Level Oakland Oceanic (ODAPS)
06:44PM 45.9897 -140.1846 265° West 467 537 39,000  Level FlightAware Transoceanic
06:45PM 45.9791 -140.3691 265° West 467 537 39,000  Level FlightAware Transoceanic
06:46PM 45.9682 -140.5535 265° West 467 537 39,000  Level FlightAware Transoceanic
06:47PM 45.9570 -140.7379 265° West 467 537 39,000  Level FlightAware Transoceanic
06:48PM 45.9455 -140.9221 265° West 467 537 39,000  Level FlightAware Transoceanic
06:49PM 45.9324 -141.1268 265° West 471 542 39,000  Level FlightAware Transoceanic
06:50PM 45.9201 -141.3143 265° West 471 542 39,000  Level FlightAware Transoceanic
06:51PM 45.9074 -141.5018 264° West 471 542 39,000  Level FlightAware Transoceanic
06:51PM 45.9000 -141.5333 264° West 473 544 39,000  Level Oakland Oceanic (ODAPS)
06:52PM 45.8944 -141.6891 264° West 471 542 39,000  Level FlightAware Transoceanic
06:53PM 45.8812 -141.8764 264° West 471 542 39,000  Level FlightAware Transoceanic
06:54PM 45.8676 -142.0636 264° West 471 542 39,000  Level FlightAware Transoceanic
06:55PM 45.8537 -142.2507 264° West 471 542 39,000  Level FlightAware Transoceanic
06:56PM 45.8396 -142.4377 264° West 471 542 39,000  Level FlightAware Transoceanic
06:57PM 45.8184 -142.6518 264° West 473 544 39,000  Level FlightAware Transoceanic
06:58PM 45.8037 -142.8379 263° West 473 544 39,000  Level FlightAware Transoceanic
06:59PM 45.7887 -143.0239 263° West 473 544 39,000  Level FlightAware Transoceanic
07:00PM 45.7735 -143.2098 263° West 473 544 39,000  Level FlightAware Transoceanic
07:01PM 45.7579 -143.3955 263° West 473 544 39,000  Level FlightAware Transoceanic
07:02PM 45.7420 -143.5812 263° West 473 544 39,000  Level FlightAware Transoceanic
07:03PM 45.7259 -143.7668 263° West 473 544 39,000  Level FlightAware Transoceanic
07:04PM 45.7094 -143.9523 263° West 473 544 39,000  Level FlightAware Transoceanic
07:05PM 45.6926 -144.1376 263° West 473 544 39,000  Level FlightAware Transoceanic
07:05PM 45.7000 -144.1167 262° West 467 537 39,000  Level Oakland Oceanic (ODAPS)
07:06PM 45.6755 -144.3228 262° West 473 544 39,000  Level FlightAware Transoceanic
07:07PM 45.6582 -144.5080 262° West 473 544 39,000  Level FlightAware Transoceanic
07:08PM 45.6405 -144.6930 262° West 473 544 39,000  Level FlightAware Transoceanic
07:09PM 45.6226 -144.8779 262° West 473 544 39,000  Level FlightAware Transoceanic
07:10PM 45.6043 -145.0626 262° West 473 544 39,000  Level FlightAware Transoceanic
07:11PM 45.5919 -145.2304 262° West 467 537 39,000  Level FlightAware Transoceanic
07:12PM 45.5728 -145.4156 262° West 467 537 39,000  Level FlightAware Transoceanic
07:13PM 45.5534 -145.6007 261° West 467 537 39,000  Level FlightAware Transoceanic
07:14PM 45.5338 -145.7857 261° West 467 537 39,000  Level FlightAware Transoceanic
07:15PM 45.5138 -145.9705 261° West 467 537 39,000  Level FlightAware Transoceanic
07:16PM 45.4935 -146.1552 261° West 467 537 39,000  Level FlightAware Transoceanic
07:17PM 45.4730 -146.3397 261° West 467 537 39,000  Level FlightAware Transoceanic
07:18PM 45.4521 -146.5241 261° West 467 537 39,000  Level FlightAware Transoceanic
07:19PM 45.4310 -146.7084 261° West 467 537 39,000  Level FlightAware Transoceanic
07:19PM 45.4333 -146.6167 261° West 445 512 39,000  Level Oakland Oceanic (ODAPS)
07:20PM 45.4095 -146.8925 261° West 467 537 39,000  Level FlightAware Transoceanic
07:21PM 45.3878 -147.0765 260° West 467 537 39,000  Level FlightAware Transoceanic
07:22PM 45.3657 -147.2604 260° West 467 537 39,000  Level FlightAware Transoceanic
07:23PM 45.3434 -147.4441 260° West 467 537 39,000  Level FlightAware Transoceanic
07:24PM 45.3208 -147.6277 260° West 467 537 39,000  Level FlightAware Transoceanic
07:25PM 45.3138 -147.6370 260° West 445 512 39,000  Level FlightAware Transoceanic
07:26PM 45.2930 -147.8066 260° West 445 512 39,000  Level FlightAware Transoceanic
07:27PM 45.2720 -147.9762 260° West 445 512 39,000  Level FlightAware Transoceanic
07:28PM 45.2507 -148.1455 260° West 445 512 39,000  Level FlightAware Transoceanic
07:29PM 45.2291 -148.3148 260° West 445 512 39,000  Level FlightAware Transoceanic
07:30PM 45.2074 -148.4839 260° West 445 512 39,000  Level FlightAware Transoceanic
07:31PM 45.1853 -148.6529 259° West 445 512 39,000  Level FlightAware Transoceanic
07:32PM 45.1630 -148.8218 259° West 445 512 39,000  Level FlightAware Transoceanic
07:32PM 45.1333 -149.0167 259° West 455 524 39,000  Level Oakland Oceanic (ODAPS)
07:33PM 45.1405 -148.9905 259° West 445 512 39,000  Level FlightAware Transoceanic
07:34PM 45.1177 -149.1591 259° West 445 512 39,000  Level FlightAware Transoceanic
07:35PM 45.0946 -149.3275 259° West 445 512 39,000  Level FlightAware Transoceanic
07:36PM 45.0714 -149.4959 259° West 445 512 39,000  Level FlightAware Transoceanic
07:37PM 45.0478 -149.6640 259° West 445 512 39,000  Level FlightAware Transoceanic
07:38PM 45.0240 -149.8321 259° West 445 512 39,000  Level FlightAware Transoceanic
07:38PM 45.0000 -150.0000 266° West 464 534 39,000  Level Oakland Oceanic (ODAPS)
07:39PM 44.9897 -150.1845 265° West 455 524 39,000  Level FlightAware Transoceanic
07:40PM 44.9791 -150.3689 265° West 455 524 39,000  Level FlightAware Transoceanic
07:41PM 44.9682 -150.5532 265° West 455 524 39,000  Level FlightAware Transoceanic
07:42PM 44.9570 -150.7375 265° West 455 524 39,000  Level FlightAware Transoceanic
07:43PM 44.9455 -150.9217 265° West 455 524 39,000  Level FlightAware Transoceanic
07:44PM 44.9350 -151.0861 265° West 464 534 39,000  Level FlightAware Transoceanic
07:45PM 44.9232 -151.2669 265° West 464 534 39,000  Level FlightAware Transoceanic
07:46PM 44.9110 -151.4476 265° West 464 534 39,000  Level FlightAware Transoceanic
07:46PM 44.9167 -151.4667 264° West 468 539 39,000  Level Oakland Oceanic (ODAPS)
07:47PM 44.8986 -151.6282 264° West 464 534 39,000  Level FlightAware Transoceanic
07:48PM 44.8859 -151.8087 264° West 464 534 39,000  Level FlightAware Transoceanic
07:49PM 44.8730 -151.9892 264° West 464 534 39,000  Level FlightAware Transoceanic
07:50PM 44.8597 -152.1695 264° West 464 534 39,000  Level FlightAware Transoceanic
07:51PM 44.8462 -152.3498 264° West 464 534 39,000  Level FlightAware Transoceanic
07:52PM 44.8324 -152.5300 264° West 464 534 39,000  Level FlightAware Transoceanic
07:53PM 44.8353 -152.5698 264° West 468 539 39,000  Level FlightAware Transoceanic
07:54PM 44.8207 -152.7533 264° West 468 539 39,000  Level FlightAware Transoceanic
07:55PM 44.8058 -152.9368 263° West 468 539 39,000  Level FlightAware Transoceanic
07:56PM 44.7907 -153.1201 263° West 468 539 39,000  Level FlightAware Transoceanic
07:57PM 44.7752 -153.3034 263° West 468 539 39,000  Level FlightAware Transoceanic
07:58PM 44.7594 -153.4865 263° West 468 539 39,000  Level FlightAware Transoceanic
07:59PM 44.7434 -153.6696 263° West 468 539 39,000  Level FlightAware Transoceanic
08:00PM 44.7270 -153.8525 263° West 468 539 39,000  Level FlightAware Transoceanic
08:00PM 44.7167 -153.9500 263° West 471 542 39,000  Level Oakland Oceanic (ODAPS)
08:01PM 44.7104 -154.0354 263° West 468 539 39,000  Level FlightAware Transoceanic
08:02PM 44.6935 -154.2181 263° West 468 539 39,000  Level FlightAware Transoceanic
08:03PM 44.6762 -154.4008 262° West 468 539 39,000  Level FlightAware Transoceanic
08:04PM 44.6587 -154.5833 262° West 468 539 39,000  Level FlightAware Transoceanic
08:05PM 44.6409 -154.7657 262° West 468 539 39,000  Level FlightAware Transoceanic
08:06PM 44.6228 -154.9480 262° West 468 539 39,000  Level FlightAware Transoceanic
08:07PM 44.5954 -155.2072 262° West 471 542 39,000  Level FlightAware Transoceanic
08:08PM 44.5769 -155.3864 262° West 471 542 39,000  Level FlightAware Transoceanic
08:09PM 44.5582 -155.5654 262° West 471 542 39,000  Level FlightAware Transoceanic
08:10PM 44.5392 -155.7444 261° West 471 542 39,000  Level FlightAware Transoceanic
08:11PM 44.5199 -155.9232 261° West 471 542 39,000  Level FlightAware Transoceanic
08:12PM 44.5003 -156.1019 261° West 471 542 39,000  Level FlightAware Transoceanic
08:13PM 44.4804 -156.2805 261° West 471 542 39,000  Level FlightAware Transoceanic
08:14PM 44.4603 -156.4589 261° West 471 542 39,000 600 Level FlightAware Transoceanic
08:14PM 44.4500 -156.4667 261° West 478 550 40,000  Climbing Oakland Oceanic (ODAPS)
08:15PM 44.4399 -156.6372 261° West 471 542 39,000 -720 Descending FlightAware Transoceanic
08:16PM 44.4192 -156.8154 261° West 471 542 39,000  Level FlightAware Transoceanic
08:17PM 44.3983 -156.9935 261° West 471 542 39,000  Level FlightAware Transoceanic
08:18PM 44.3770 -157.1715 260° West 471 542 39,000  Level FlightAware Transoceanic
08:19PM 44.3555 -157.3493 260° West 471 542 39,000 480 Level FlightAware Transoceanic
08:20PM 44.3265 -157.5323 260° West 478 550 40,000 480 Climbing FlightAware Transoceanic
08:21PM 44.3049 -157.7094 260° West 478 550 40,000  Level FlightAware Transoceanic
08:22PM 44.2831 -157.8864 260° West 478 550 40,000  Level FlightAware Transoceanic
08:23PM 44.2610 -158.0633 260° West 478 550 40,000  Level FlightAware Transoceanic
08:24PM 44.2386 -158.2401 260° West 478 550 40,000  Level FlightAware Transoceanic
08:25PM 44.2160 -158.4167 260° West 478 550 40,000  Level FlightAware Transoceanic
08:26PM 44.1931 -158.5932 260° West 478 550 40,000  Level FlightAware Transoceanic
08:27PM 44.1699 -158.7695 260° West 478 550 40,000  Level FlightAware Transoceanic
08:28PM 44.1464 -158.9458 259° West 478 550 40,000  Level FlightAware Transoceanic
08:28PM 44.1333 -159.0333 259° West 492 566 40,000  Level Oakland Oceanic (ODAPS)
08:29PM 44.1227 -159.1218 259° West 478 550 40,000  Level FlightAware Transoceanic
08:30PM 44.0987 -159.2977 259° West 478 550 40,000  Level FlightAware Transoceanic
08:31PM 44.0744 -159.4735 259° West 478 550 40,000  Level FlightAware Transoceanic
08:32PM 44.0499 -159.6492 259° West 478 550 40,000  Level FlightAware Transoceanic
08:33PM 44.0251 -159.8247 259° West 478 550 40,000  Level FlightAware Transoceanic
08:34PM 43.9891 -160.1950 265° West 492 566 40,000  Level FlightAware Transoceanic
08:34PM 44.0000 -160.0000 266° West 506 582 40,000  Level Oakland Oceanic (ODAPS)
08:35PM 43.9778 -160.3900 265° West 492 566 40,000  Level FlightAware Transoceanic
08:36PM 43.9662 -160.5849 265° West 492 566 40,000  Level FlightAware Transoceanic
08:37PM 43.9543 -160.7796 265° West 492 566 40,000  Level FlightAware Transoceanic
08:38PM 43.9421 -160.9744 265° West 492 566 40,000  Level FlightAware Transoceanic
08:39PM 43.9295 -161.1690 265° West 492 566 40,000  Level FlightAware Transoceanic
08:40PM 43.9183 -161.3379 265° West 506 582 40,000  Level FlightAware Transoceanic
08:41PM 43.9054 -161.5287 265° West 506 582 40,000  Level FlightAware Transoceanic
08:42PM 43.8921 -161.7194 264° West 506 582 40,000  Level FlightAware Transoceanic
08:43PM 43.8786 -161.9100 264° West 506 582 40,000  Level FlightAware Transoceanic
08:43PM 43.9000 -161.6833 264° West 512 589 40,000  Level Oakland Oceanic (ODAPS)
08:44PM 43.8647 -162.1006 264° West 506 582 40,000  Level FlightAware Transoceanic
08:45PM 43.8504 -162.2911 264° West 506 582 40,000  Level FlightAware Transoceanic
08:46PM 43.8359 -162.4814 264° West 506 582 40,000  Level FlightAware Transoceanic
08:47PM 43.8211 -162.6717 264° West 506 582 40,000  Level FlightAware Transoceanic
08:48PM 43.8059 -162.8619 264° West 506 582 40,000  Level FlightAware Transoceanic
08:49PM 43.7949 -163.0529 263° West 512 589 40,000  Level FlightAware Transoceanic
08:50PM 43.7785 -163.2482 263° West 512 589 40,000  Level FlightAware Transoceanic
08:51PM 43.7618 -163.4433 263° West 512 589 40,000  Level FlightAware Transoceanic
08:52PM 43.7448 -163.6384 263° West 512 589 40,000  Level FlightAware Transoceanic
08:53PM 43.7275 -163.8333 263° West 512 589 40,000  Level FlightAware Transoceanic
08:54PM 43.7098 -164.0281 263° West 512 589 40,000  Level FlightAware Transoceanic
08:55PM 43.6918 -164.2228 263° West 512 589 40,000  Level FlightAware Transoceanic
08:56PM 43.6734 -164.4173 263° West 512 589 40,000  Level FlightAware Transoceanic
08:56PM 43.6667 -164.4000 263° West 515 593 40,000  Level Oakland Oceanic (ODAPS)
08:57PM 43.6548 -164.6118 262° West 512 589 40,000  Level FlightAware Transoceanic
08:58PM 43.6358 -164.8061 262° West 512 589 40,000  Level FlightAware Transoceanic
08:59PM 43.6164 -165.0003 262° West 512 589 40,000  Level FlightAware Transoceanic
09:00PM 43.5968 -165.1944 262° West 512 589 40,000  Level FlightAware Transoceanic
09:01PM 43.5768 -165.3884 262° West 512 589 40,000  Level FlightAware Transoceanic
09:02PM 43.5565 -165.5822 262° West 512 589 40,000  Level FlightAware Transoceanic
09:03PM 43.5309 -165.7626 262° West 515 593 40,000  Level FlightAware Transoceanic
09:04PM 43.5102 -165.9568 262° West 515 593 40,000  Level FlightAware Transoceanic
09:05PM 43.4891 -166.1508 261° West 515 593 40,000  Level FlightAware Transoceanic
09:06PM 43.4677 -166.3447 261° West 515 593 40,000  Level FlightAware Transoceanic
09:07PM 43.4460 -166.5384 261° West 515 593 40,000  Level FlightAware Transoceanic
09:08PM 43.4240 -166.7320 261° West 515 593 40,000  Level FlightAware Transoceanic
09:09PM 43.4016 -166.9255 261° West 515 593 40,000  Level FlightAware Transoceanic
09:10PM 43.3790 -167.1188 261° West 515 593 40,000  Level FlightAware Transoceanic
09:11PM 43.3559 -167.3120 261° West 515 593 40,000  Level FlightAware Transoceanic
09:12PM 43.3326 -167.5050 260° West 515 593 40,000  Level FlightAware Transoceanic
09:12PM 43.3833 -167.1000 261° West 520 598 40,000  Level Oakland Oceanic (ODAPS)
09:13PM 43.3090 -167.6978 260° West 515 593 40,000  Level FlightAware Transoceanic
09:14PM 43.2850 -167.8906 260° West 515 593 40,000  Level FlightAware Transoceanic
09:15PM 43.2607 -168.0831 260° West 515 593 40,000  Level FlightAware Transoceanic
09:16PM 43.2361 -168.2755 260° West 515 593 40,000  Level FlightAware Transoceanic
09:17PM 43.2111 -168.4678 260° West 515 593 40,000  Level FlightAware Transoceanic
09:18PM 43.1880 -168.6512 260° West 520 598 40,000  Level FlightAware Transoceanic
09:19PM 43.1621 -168.8444 260° West 520 598 40,000  Level FlightAware Transoceanic
09:20PM 43.1359 -169.0374 259° West 520 598 40,000  Level FlightAware Transoceanic
09:21PM 43.1094 -169.2303 259° West 520 598 40,000  Level FlightAware Transoceanic
09:22PM 43.0825 -169.4230 259° West 520 598 40,000  Level FlightAware Transoceanic
09:23PM 43.0553 -169.6155 259° West 520 598 40,000  Level FlightAware Transoceanic
09:24PM 43.0278 -169.8078 259° West 520 598 40,000  Level FlightAware Transoceanic
09:24PM 43.0333 -169.8000 257° West 520 598 40,000  Level Oakland Oceanic (ODAPS)
09:25PM 43.0000 -170.0000 266° West 520 598 40,000  Level FlightAware Transoceanic
09:25PM 42.9833 -170.2000 266° West 510 587 40,000  Level Oakland Oceanic (ODAPS)
09:26PM 42.9893 -170.1913 266° West 520 598 40,000  Level FlightAware Transoceanic
09:27PM 42.9782 -170.3824 265° West 520 598 40,000  Level FlightAware Transoceanic
09:28PM 42.9669 -170.5735 265° West 520 598 40,000  Level FlightAware Transoceanic
09:29PM 42.9552 -170.7646 265° West 520 598 40,000  Level FlightAware Transoceanic
09:30PM 42.9432 -170.9556 265° West 520 598 40,000  Level FlightAware Transoceanic
09:31PM 42.9308 -171.1465 265° West 520 598 40,000  Level FlightAware Transoceanic
09:32PM 42.9114 -171.3673 265° West 510 587 40,000  Level FlightAware Transoceanic
09:33PM 42.8982 -171.5616 265° West 510 587 40,000  Level FlightAware Transoceanic
09:34PM 42.8848 -171.7558 265° West 510 587 40,000  Level FlightAware Transoceanic
09:35PM 42.8710 -171.9499 264° West 510 587 40,000  Level FlightAware Transoceanic
09:36PM 42.8568 -172.1439 264° West 510 587 40,000  Level FlightAware Transoceanic
09:37PM 42.8424 -172.3379 264° West 510 587 40,000  Level FlightAware Transoceanic
09:37PM 42.8333 -172.5000 264° West 516 594 40,000  Level Oakland Oceanic (ODAPS)
09:38PM 42.8276 -172.5317 264° West 510 587 40,000  Level FlightAware Transoceanic
09:39PM 42.8125 -172.7255 264° West 510 587 40,000  Level FlightAware Transoceanic
09:40PM 42.7970 -172.9191 264° West 510 587 40,000  Level FlightAware Transoceanic
09:41PM 42.7813 -173.1127 264° West 510 587 40,000  Level FlightAware Transoceanic
09:42PM 42.7652 -173.3061 263° West 510 587 40,000  Level FlightAware Transoceanic
09:43PM 42.7561 -173.4477 263° West 516 594 40,000  Level FlightAware Transoceanic
09:44PM 42.7397 -173.6369 263° West 516 594 40,000  Level FlightAware Transoceanic
09:45PM 42.7230 -173.8261 263° West 516 594 40,000  Level FlightAware Transoceanic
09:46PM 42.7060 -174.0151 263° West 516 594 40,000  Level FlightAware Transoceanic
09:47PM 42.6887 -174.2040 263° West 516 594 40,000  Level FlightAware Transoceanic
09:48PM 42.6711 -174.3929 263° West 516 594 40,000  Level FlightAware Transoceanic
09:49PM 42.6531 -174.5816 263° West 516 594 40,000  Level FlightAware Transoceanic
09:50PM 42.6349 -174.7702 262° West 516 594 40,000  Level FlightAware Transoceanic
09:51PM 42.6163 -174.9587 262° West 516 594 40,000  Level FlightAware Transoceanic
09:51PM 42.6000 -175.1333 262° West 504 580 40,000  Level Oakland Oceanic (ODAPS)
09:52PM 42.5975 -175.1471 262° West 516 594 40,000  Level FlightAware Transoceanic
09:53PM 42.5783 -175.3354 262° West 516 594 40,000  Level FlightAware Transoceanic
09:54PM 42.5588 -175.5235 262° West 516 594 40,000  Level FlightAware Transoceanic
09:55PM 42.5390 -175.7116 262° West 516 594 40,000  Level FlightAware Transoceanic
09:56PM 42.5189 -175.8995 262° West 516 594 40,000  Level FlightAware Transoceanic
09:57PM 42.4845 -176.2226 261° West 504 580 40,000  Level FlightAware Transoceanic
09:58PM 42.4643 -176.4037 261° West 504 580 40,000  Level FlightAware Transoceanic
09:59PM 42.4437 -176.5848 261° West 504 580 40,000  Level FlightAware Transoceanic
10:00PM 42.4229 -176.7657 261° West 504 580 40,000  Level FlightAware Transoceanic
10:01PM 42.4018 -176.9465 261° West 504 580 40,000  Level FlightAware Transoceanic
10:02PM 42.3804 -177.1272 261° West 504 580 40,000  Level FlightAware Transoceanic
10:03PM 42.3588 -177.3077 261° West 504 580 40,000  Level FlightAware Transoceanic
10:04PM 42.3368 -177.4881 261° West 504 580 40,000  Level FlightAware Transoceanic
10:05PM 42.3146 -177.6684 260° West 504 580 40,000 360 Level FlightAware Transoceanic
10:05PM 42.3167 -177.7000 260° West 502 578 40,600  Climbing Oakland Oceanic (ODAPS)
10:06PM 42.2921 -177.8486 260° West 504 580 40,000 -420 Descending FlightAware Transoceanic
10:07PM 42.2693 -178.0286 260° West 504 580 40,000  Level FlightAware Transoceanic
10:08PM 42.2462 -178.2085 260° West 504 580 40,000  Level FlightAware Transoceanic
10:09PM 42.2228 -178.3883 260° West 504 580 40,000  Level FlightAware Transoceanic
10:10PM 42.1992 -178.5679 260° West 504 580 40,000 300 Level FlightAware Transoceanic
10:11PM 42.1762 -178.7644 260° West 502 578 40,600 300 Climbing FlightAware Transoceanic
10:12PM 42.1519 -178.9413 259° West 502 578 40,600  Level FlightAware Transoceanic
10:13PM 42.1272 -179.1181 259° West 502 578 40,600  Level FlightAware Transoceanic
10:14PM 42.1023 -179.2948 259° West 502 578 40,600  Level FlightAware Transoceanic
10:15PM 42.0771 -179.4713 259° West 502 578 40,600  Level FlightAware Transoceanic
10:16PM 42.0517 -179.6477 259° West 502 578 40,600  Level FlightAware Transoceanic
10:17PM 42.0260 -179.8239 259° West 502 578 40,600  Level FlightAware Transoceanic
10:18PM 42.0000 -180.0000 258° West 502 578 40,600 360 Level FlightAware Transoceanic
10:18PM 42.0000 180.0000 258° West 506 582 41,000  Climbing Oakland Oceanic (ODAPS)
10:19PM 41.9730 179.8227 258° West 502 578 40,600  Descending FlightAware Transoceanic
10:19PM 41.9667 179.7500 258° West 503 579 41,000  Climbing Oakland Oceanic (ODAPS)
10:20PM 41.9457 179.6456 258° West 502 578 40,600 -300 Descending FlightAware Transoceanic
10:21PM 41.9182 179.4686 258° West 502 578 40,600  Level FlightAware Transoceanic
10:22PM 41.8904 179.2917 258° West 502 578 40,600  Level FlightAware Transoceanic
10:23PM 41.8623 179.1150 258° West 502 578 40,600 180 Level FlightAware Transoceanic
10:24PM 41.8246 178.8808 258° West 506 582 41,000 180 Climbing FlightAware Transoceanic
10:25PM 41.7927 178.6592 258° West 503 579 41,000  Level FlightAware Transoceanic
10:26PM 41.7627 178.4780 257° West 503 579 41,000  Level FlightAware Transoceanic
10:27PM 41.7325 178.2969 257° West 503 579 41,000  Level FlightAware Transoceanic
10:28PM 41.7019 178.1160 257° West 503 579 41,000  Level FlightAware Transoceanic
10:29PM 41.6711 177.9353 257° West 503 579 41,000  Level FlightAware Transoceanic
10:30PM 41.6400 177.7548 257° West 503 579 41,000  Level FlightAware Transoceanic
10:31PM 41.6086 177.5744 257° West 503 579 41,000  Level FlightAware Transoceanic
10:31PM 41.5833 177.4667 257° West 503 579 41,000  Level Oakland Oceanic (ODAPS)
10:32PM 41.5769 177.3942 257° West 503 579 41,000  Level FlightAware Transoceanic
10:33PM 41.5449 177.2142 257° West 503 579 41,000  Level FlightAware Transoceanic
10:33PM 41.5333 177.2000 257° West 507 583 41,000  Level Oakland Oceanic (ODAPS)
10:34PM 41.5126 177.0344 256° West 503 579 41,000  Level FlightAware Transoceanic
10:35PM 41.4801 176.8548 256° West 503 579 41,000  Level FlightAware Transoceanic
10:36PM 41.4473 176.6753 256° West 503 579 41,000  Level FlightAware Transoceanic
10:37PM 41.4142 176.4960 256° West 503 579 41,000  Level FlightAware Transoceanic
10:38PM 41.3821 176.3523 256° West 503 579 41,000  Level FlightAware Transoceanic
10:39PM 41.3322 176.0993 256° West 507 583 41,000  Level FlightAware Transoceanic
10:40PM 41.2977 175.9165 256° West 507 583 41,000  Level FlightAware Transoceanic
10:41PM 41.2628 175.7339 256° West 507 583 41,000  Level FlightAware Transoceanic
10:42PM 41.2277 175.5515 256° West 507 583 41,000  Level FlightAware Transoceanic
10:43PM 41.1923 175.3693 255° West 507 583 41,000  Level FlightAware Transoceanic
10:44PM 41.1566 175.1873 255° West 507 583 41,000  Level FlightAware Transoceanic
10:45PM 41.1207 175.0055 255° West 507 583 41,000  Level FlightAware Transoceanic
10:46PM 41.0844 174.8239 255° West 507 583 41,000  Level FlightAware Transoceanic
10:47PM 41.0479 174.6425 255° West 507 583 41,000  Level FlightAware Transoceanic
10:47PM 41.0667 174.7167 255° West 497 572 41,000  Level Oakland Oceanic (ODAPS)
10:48PM 41.0110 174.4613 255° West 507 583 41,000  Level FlightAware Transoceanic
10:49PM 40.9739 174.2803 255° West 507 583 41,000  Level FlightAware Transoceanic
10:50PM 40.9365 174.0995 255° West 507 583 41,000  Level FlightAware Transoceanic
10:51PM 40.8988 173.9190 255° West 507 583 41,000  Level FlightAware Transoceanic
10:52PM 40.8609 173.7386 254° West 507 583 41,000  Level FlightAware Transoceanic
10:53PM 40.8463 173.6557 254° West 497 572 41,000  Level FlightAware Transoceanic
10:54PM 40.8087 173.4795 254° West 497 572 41,000  Level FlightAware Transoceanic
10:55PM 40.7707 173.3036 254° West 497 572 41,000  Level FlightAware Transoceanic
10:56PM 40.7325 173.1279 254° West 497 572 41,000  Level FlightAware Transoceanic
10:57PM 40.6940 172.9523 254° West 497 572 41,000  Level FlightAware Transoceanic
10:58PM 40.6553 172.7770 254° West 497 572 41,000  Level FlightAware Transoceanic
10:59PM 40.6163 172.6019 254° West 497 572 41,000  Level FlightAware Transoceanic
11:00PM 40.5770 172.4269 253° West 497 572 41,000  Level FlightAware Transoceanic
11:00PM 40.5500 172.3167 253° West 490 564 41,000  Level Oakland Oceanic (ODAPS)
11:01PM 40.5375 172.2522 253° West 497 572 41,000  Level FlightAware Transoceanic
11:02PM 40.4977 172.0777 253° West 497 572 41,000  Level FlightAware Transoceanic
11:03PM 40.4577 171.9034 253° West 497 572 41,000  Level FlightAware Transoceanic
11:04PM 40.4174 171.7293 253° West 497 572 41,000  Level FlightAware Transoceanic
11:05PM 40.3768 171.5554 253° West 497 572 41,000  Level FlightAware Transoceanic
11:06PM 40.3359 171.3817 253° West 497 572 41,000  Level FlightAware Transoceanic
11:07PM 40.3019 171.2428 253° West 490 564 41,000  Level FlightAware Transoceanic
11:08PM 40.2596 171.0645 253° West 490 564 41,000  Level FlightAware Transoceanic
11:09PM 40.2170 170.8866 253° West 490 564 41,000  Level FlightAware Transoceanic
11:10PM 40.1741 170.7088 252° West 490 564 41,000  Level FlightAware Transoceanic
11:11PM 40.1310 170.5313 252° West 490 564 41,000  Level FlightAware Transoceanic
11:12PM 40.0876 170.3539 252° West 490 564 41,000  Level FlightAware Transoceanic
11:13PM 40.0439 170.1769 252° West 490 564 41,000  Level FlightAware Transoceanic
11:14PM 40.0000 170.0000 259° West 490 564 41,000  Level FlightAware Transoceanic
11:14PM 40.0000 170.0000 259° West 480 552 41,000  Level Oakland Oceanic (ODAPS)
11:15PM 39.9751 169.8371 259° West 490 564 41,000  Level FlightAware Transoceanic
11:15PM 39.9833 169.9333 259° West 473 544 41,000  Level Oakland Oceanic (ODAPS)
11:16PM 39.9499 169.6743 259° West 490 564 41,000  Level FlightAware Transoceanic
11:17PM 39.9245 169.5116 258° West 490 564 41,000  Level FlightAware Transoceanic
11:18PM 39.8989 169.3490 258° West 490 564 41,000  Level FlightAware Transoceanic
11:19PM 39.8730 169.1866 258° West 490 564 41,000  Level FlightAware Transoceanic
11:20PM 39.8470 169.0242 258° West 490 564 41,000  Level FlightAware Transoceanic
11:21PM 39.8263 168.9326 258° West 473 544 41,000  Level FlightAware Transoceanic
11:22PM 39.7993 168.7663 258° West 473 544 41,000  Level FlightAware Transoceanic
11:23PM 39.7720 168.6000 258° West 473 544 41,000  Level FlightAware Transoceanic
11:24PM 39.7445 168.4340 258° West 473 544 41,000  Level FlightAware Transoceanic
11:25PM 39.7168 168.2680 258° West 473 544 41,000  Level FlightAware Transoceanic
11:26PM 39.6888 168.1022 258° West 473 544 41,000  Level FlightAware Transoceanic
11:27PM 39.6606 167.9365 257° West 473 544 41,000  Level FlightAware Transoceanic
11:28PM 39.6322 167.7710 257° West 473 544 41,000  Level FlightAware Transoceanic
11:28PM 39.6333 167.7333 257° West 466 536 41,000  Level Oakland Oceanic (ODAPS)
11:29PM 39.6035 167.6056 257° West 473 544 41,000  Level FlightAware Transoceanic
11:30PM 39.5746 167.4403 257° West 473 544 41,000  Level FlightAware Transoceanic
11:31PM 39.5455 167.2752 257° West 473 544 41,000  Level FlightAware Transoceanic
11:32PM 39.5162 167.1102 257° West 473 544 41,000  Level FlightAware Transoceanic
11:32PM 39.5167 167.0667 257° West 467 537 41,000  Level Oakland Oceanic (ODAPS)
11:33PM 39.4866 166.9454 257° West 473 544 41,000  Level FlightAware Transoceanic
11:34PM 39.4567 166.7807 257° West 473 544 41,000  Level FlightAware Transoceanic
11:35PM 39.4316 166.6074 257° West 466 536 41,000  Level FlightAware Transoceanic
11:36PM 39.4019 166.4471 256° West 466 536 41,000  Level FlightAware Transoceanic
11:37PM 39.3720 166.2869 256° West 466 536 41,000  Level FlightAware Transoceanic
11:38PM 39.3660 166.2489 256° West 467 537 41,000  Level FlightAware Transoceanic
11:39PM 39.3352 166.0857 256° West 467 537 41,000  Level FlightAware Transoceanic
11:40PM 39.3042 165.9227 256° West 467 537 41,000  Level FlightAware Transoceanic
11:41PM 39.2729 165.7599 256° West 467 537 41,000  Level FlightAware Transoceanic
11:42PM 39.2414 165.5972 256° West 467 537 41,000  Level FlightAware Transoceanic
11:42PM 39.2167 165.5000 256° West 461 531 41,000  Level Oakland Oceanic (ODAPS)
11:43PM 39.2097 165.4346 256° West 467 537 41,000  Level FlightAware Transoceanic
11:44PM 39.1777 165.2722 256° West 467 537 41,000  Level FlightAware Transoceanic
11:45PM 39.1456 165.1100 256° West 467 537 41,000  Level FlightAware Transoceanic
11:46PM 39.1132 164.9479 256° West 467 537 41,000  Level FlightAware Transoceanic
11:47PM 39.0806 164.7859 255° West 467 537 41,000  Level FlightAware Transoceanic
11:48PM 39.0265 164.5441 255° West 461 531 41,000  Level FlightAware Transoceanic
11:49PM 38.9941 164.3853 255° West 461 531 41,000  Level FlightAware Transoceanic
11:50PM 38.9614 164.2266 255° West 461 531 41,000  Level FlightAware Transoceanic
11:51PM 38.9286 164.0681 255° West 461 531 41,000  Level FlightAware Transoceanic
11:52PM 38.8955 163.9097 255° West 461 531 41,000  Level FlightAware Transoceanic
11:53PM 38.8622 163.7515 255° West 461 531 41,000  Level FlightAware Transoceanic
11:54PM 38.8287 163.5934 255° West 461 531 41,000  Level FlightAware Transoceanic
11:55PM 38.7949 163.4355 255° West 461 531 41,000  Level FlightAware Transoceanic
11:56PM 38.7610 163.2777 255° West 461 531 41,000  Level FlightAware Transoceanic
11:57PM 38.7268 163.1201 254° West 461 531 41,000  Level FlightAware Transoceanic
11:58PM 38.6925 162.9626 254° West 461 531 41,000  Level FlightAware Transoceanic
11:59PM 38.6579 162.8053 254° West 461 531 41,000  Level FlightAware Transoceanic
12:00AM 38.6231 162.6481 254° West 461 531 41,000  Level FlightAware Transoceanic
12:01AM 38.5881 162.4911 254° West 461 531 41,000  Level FlightAware Transoceanic
12:02AM 38.5529 162.3342 254° West 461 531 41,000  Level FlightAware Transoceanic
12:03AM 38.5175 162.1775 254° West 461 531 41,000  Level FlightAware Transoceanic
12:04AM 38.4819 162.0209 254° West 461 531 41,000  Level FlightAware Transoceanic
12:05AM 38.4460 161.8645 254° West 461 531 41,000  Level FlightAware Transoceanic
12:06AM 38.4100 161.7083 254° West 461 531 41,000  Level FlightAware Transoceanic
12:07AM 38.3737 161.5522 253° West 461 531 41,000  Level FlightAware Transoceanic
12:08AM 38.3373 161.3963 253° West 461 531 41,000  Level FlightAware Transoceanic
12:09AM 38.3006 161.2405 253° West 461 531 41,000  Level FlightAware Transoceanic
12:10AM 38.2638 161.0849 253° West 461 531 41,000  Level FlightAware Transoceanic
12:11AM 38.2267 160.9294 253° West 461 531 41,000  Level FlightAware Transoceanic
12:12AM 38.1894 160.7741 253° West 461 531 41,000  Level FlightAware Transoceanic
12:13AM 38.1520 160.6190 253° West 461 531 41,000  Level FlightAware Transoceanic
12:14AM 38.1143 160.4640 253° West 461 531 41,000  Level FlightAware Transoceanic
12:15AM 38.0764 160.3092 253° West 461 531 41,000  Level FlightAware Transoceanic
12:16AM 38.0383 160.1545 253° West 461 531 41,000  Level FlightAware Transoceanic
12:17AM 38.0000 160.0000 266° West 461 531 41,000  Level FlightAware Transoceanic
12:18AM 37.9913 159.8490 266° West 461 531 41,000  Level FlightAware Transoceanic
12:19AM 37.9825 159.6981 266° West 461 531 41,000  Level FlightAware Transoceanic
12:20AM 37.9734 159.5472 266° West 461 531 41,000  Level FlightAware Transoceanic
12:21AM 37.9642 159.3963 266° West 461 531 41,000  Level FlightAware Transoceanic
12:22AM 37.9548 159.2455 265° West 461 531 41,000  Level FlightAware Transoceanic
12:23AM 37.9451 159.0947 265° West 461 531 41,000  Level FlightAware Transoceanic
12:24AM 37.9353 158.9440 265° West 461 531 41,000  Level FlightAware Transoceanic
12:25AM 37.9253 158.7933 265° West 461 531 41,000  Level FlightAware Transoceanic
12:26AM 37.9151 158.6426 265° West 461 531 41,000  Level FlightAware Transoceanic
12:27AM 37.9047 158.4920 265° West 461 531 41,000  Level FlightAware Transoceanic
12:28AM 37.8941 158.3414 265° West 461 531 41,000  Level FlightAware Transoceanic
12:29AM 37.8834 158.1909 265° West 461 531 41,000  Level FlightAware Transoceanic
12:30AM 37.8724 158.0404 265° West 461 531 41,000  Level FlightAware Transoceanic
12:31AM 37.8612 157.8900 265° West 461 531 41,000  Level FlightAware Transoceanic
12:32AM 37.8499 157.7396 264° West 461 531 41,000  Level FlightAware Transoceanic
12:33AM 37.8383 157.5892 264° West 461 531 41,000  Level FlightAware Transoceanic
12:34AM 37.8266 157.4389 264° West 461 531 41,000  Level FlightAware Transoceanic
12:35AM 37.8147 157.2887 264° West 461 531 41,000  Level FlightAware Transoceanic
12:36AM 37.8026 157.1385 264° West 461 531 41,000  Level FlightAware Transoceanic
12:37AM 37.7903 156.9883 264° West 461 531 41,000  Level FlightAware Transoceanic
12:38AM 37.7778 156.8382 264° West 461 531 41,000  Level FlightAware Transoceanic
12:39AM 37.7651 156.6882 264° West 461 531 41,000  Level FlightAware Transoceanic
12:40AM 37.7522 156.5381 264° West 461 531 41,000  Level FlightAware Transoceanic
12:41AM 37.7391 156.3882 264° West 461 531 41,000  Level FlightAware Transoceanic
12:42AM 37.7259 156.2383 264° West 461 531 41,000  Level FlightAware Transoceanic
12:43AM 37.7124 156.0885 263° West 461 531 41,000  Level FlightAware Transoceanic
12:44AM 37.6988 155.9387 263° West 461 531 41,000  Level FlightAware Transoceanic
12:45AM 37.6850 155.7889 263° West 461 531 41,000  Level FlightAware Transoceanic
12:46AM 37.6710 155.6393 263° West 461 531 41,000  Level FlightAware Transoceanic
12:47AM 37.6567 155.4896 263° West 461 531 41,000  Level FlightAware Transoceanic
12:48AM 37.6423 155.3401 263° West 461 531 41,000  Level FlightAware Transoceanic
12:49AM 37.6278 155.1906 263° West 461 531 41,000  Level FlightAware Transoceanic
12:50AM 37.6130 155.0411 263° West 461 531 41,000  Level FlightAware Transoceanic
12:51AM 37.5980 154.8918 263° West 461 531 41,000  Level FlightAware Transoceanic
12:52AM 37.5829 154.7424 263° West 461 531 41,000  Level FlightAware Transoceanic
12:53AM 37.5676 154.5932 263° West 461 531 41,000  Level FlightAware Transoceanic
12:54AM 37.5520 154.4440 262° West 461 531 41,000  Level FlightAware Transoceanic
12:55AM 37.5363 154.2948 262° West 461 531 41,000  Level FlightAware Transoceanic
12:56AM 37.5204 154.1458 262° West 461 531 41,000  Level FlightAware Transoceanic
12:57AM 37.5043 153.9967 262° West 461 531 41,000  Level FlightAware Transoceanic
12:58AM 37.4881 153.8478 262° West 461 531 41,000  Level FlightAware Transoceanic
12:59AM 37.4716 153.6989 262° West 461 531 41,000  Level FlightAware Transoceanic
01:00AM 37.4550 153.5501 262° West 461 531 41,000  Level FlightAware Transoceanic
01:01AM 37.4381 153.4013 262° West 461 531 41,000  Level FlightAware Transoceanic
01:02AM 37.4211 153.2527 262° West 461 531 41,000  Level FlightAware Transoceanic
01:03AM 37.4039 153.1040 262° West 461 531 41,000  Level FlightAware Transoceanic
01:04AM 37.3865 152.9555 262° West 461 531 41,000  Level FlightAware Transoceanic
01:05AM 37.3689 152.8070 261° West 461 531 41,000  Level FlightAware Transoceanic
01:06AM 37.3512 152.6586 261° West 461 531 41,000  Level FlightAware Transoceanic
01:07AM 37.3332 152.5103 261° West 461 531 41,000  Level FlightAware Transoceanic
01:08AM 37.3151 152.3620 261° West 461 531 41,000  Level FlightAware Transoceanic
01:09AM 37.2968 152.2138 261° West 461 531 41,000  Level FlightAware Transoceanic
01:10AM 37.2783 152.0657 261° West 461 531 41,000  Level FlightAware Transoceanic
01:11AM 37.2596 151.9177 261° West 461 531 41,000  Level FlightAware Transoceanic
01:12AM 37.2407 151.7697 261° West 461 531 41,000  Level FlightAware Transoceanic
01:13AM 37.2217 151.6218 261° West 461 531 41,000  Level FlightAware Transoceanic
01:14AM 37.2024 151.4740 261° West 461 531 41,000  Level FlightAware Transoceanic
01:15AM 37.1830 151.3262 261° West 461 531 41,000  Level FlightAware Transoceanic
01:16AM 37.1634 151.1785 260° West 461 531 41,000  Level FlightAware Transoceanic
01:17AM 37.1436 151.0309 260° West 461 531 41,000  Level FlightAware Transoceanic
01:18AM 37.1236 150.8834 260° West 461 531 41,000  Level FlightAware Transoceanic
01:19AM 37.1035 150.7360 260° West 461 531 41,000  Level FlightAware Transoceanic
01:20AM 37.0832 150.5886 260° West 461 531 41,000  Level FlightAware Transoceanic
01:21AM 37.0626 150.4414 260° West 461 531 41,000  Level FlightAware Transoceanic
01:22AM 37.0420 150.2942 260° West 461 531 41,000  Level FlightAware Transoceanic
01:23AM 37.0211 150.1470 260° West 461 531 41,000  Level FlightAware Transoceanic
01:24AM 36.9985 149.9897 260° West  Level FlightAware Approximate
01:25AM 36.9985 149.9791 265° West  Level FlightAware Approximate
01:26AM 36.9873 149.8199 265° West  Level FlightAware Approximate
01:27AM 36.9759 149.6607 265° West  Level FlightAware Approximate
01:28AM 36.9643 149.5016 265° West  Level FlightAware Approximate
01:29AM 36.9524 149.3425 265° West  Level FlightAware Approximate
01:30AM 36.9404 149.1834 265° West  Level FlightAware Approximate
01:31AM 36.9281 149.0245 265° West  Level FlightAware Approximate
01:32AM 36.9156 148.8655 264° West  Level FlightAware Approximate
01:33AM 36.9029 148.7066 264° West  Level FlightAware Approximate
01:34AM 36.8900 148.5478 264° West  Level FlightAware Approximate
01:35AM 36.8674 148.3912 255° West  Level FlightAware Approximate
01:36AM 36.8346 148.2370 255° West  Level FlightAware Approximate
01:37AM 36.8017 148.0829 255° West  Level FlightAware Approximate
01:38AM 36.7686 147.9290 255° West  Level FlightAware Approximate
01:39AM 36.7352 147.7752 255° West  Level FlightAware Approximate
01:40AM 36.7017 147.6215 255° West  Level FlightAware Approximate
01:41AM 36.6679 147.4680 255° West  Level FlightAware Approximate
01:42AM 36.6340 147.3146 255° West  Level FlightAware Approximate
01:43AM 36.5999 147.1613 255° West  Level FlightAware Approximate
01:44AM 36.5656 147.0081 254° West  Level FlightAware Approximate
01:45AM 36.5310 146.8551 254° West  Level FlightAware Approximate
01:46AM 36.4963 146.7023 254° West  Level FlightAware Approximate
01:47AM 36.4614 146.5496 254° West  Level FlightAware Approximate
01:48AM 36.4263 146.3970 254° West  Level FlightAware Approximate
01:49AM 36.3880 146.2458 248° West  Level FlightAware Approximate
01:50AM 36.3405 146.0986 248° West  Level FlightAware Approximate
01:51AM 36.2929 145.9516 248° West  Level FlightAware Approximate
01:52AM 36.2452 145.8047 248° West  Level FlightAware Approximate
01:52AM 36.2900 146.1820 248° West 414 476 41,000  Level FlightAware
01:52AM 36.2750 146.1080 256° West 412 474 41,000  Level FlightAware
01:53AM 36.2560 146.0100 257° West 412 474 41,000  Level FlightAware
01:54AM 36.2410 145.9400 255° West 412 474 41,000  Level FlightAware
01:54AM 36.2270 145.8700 256° West 412 474 41,000  Level FlightAware
01:55AM 36.2050 145.7650 255° West 411 473 41,000  Level FlightAware
01:55AM 36.1900 145.6930 256° West 411 473 41,000  Level FlightAware
01:56AM 36.1760 145.6210 256° West 411 473 41,000  Level FlightAware
01:57AM 36.1620 145.5510 256° West 411 473 41,000  Level FlightAware
01:57AM 36.1480 145.4810 256° West 411 473 41,000  Level FlightAware
01:58AM 36.1340 145.4150 255° West 411 473 41,000  Level FlightAware
01:58AM 36.1200 145.3450 256° West 411 473 41,000  Level FlightAware
01:59AM 36.1060 145.2750 256° West 411 473 41,000  Level FlightAware
02:00AM 36.0920 145.2040 256° West 411 473 41,000  Level FlightAware
02:00AM 36.0780 145.1340 256° West 411 473 41,000  Level FlightAware
02:01AM 36.0630 145.0620 256° West 411 473 41,000  Level FlightAware
02:01AM 36.0500 144.9960 256° West 411 473 41,000  Level FlightAware
02:02AM 36.0360 144.9300 255° West 411 473 41,000  Level FlightAware
02:03AM 36.0180 144.6550 265° West 419 482 41,000  Level FlightAware
02:03AM 36.0060 144.5730 260° West 417 480 41,000  Level FlightAware
02:04AM 35.9910 144.4800 259° West 415 478 41,000  Level FlightAware
02:05AM 35.9730 144.3640 259° West 415 478 41,000  Level FlightAware
02:05AM 35.9620 144.2930 259° West 415 478 41,000  Level FlightAware
02:06AM 35.9500 144.2210 258° West 415 478 41,000  Level FlightAware
02:07AM 35.9330 144.1160 259° West 420 483 41,000  Level FlightAware
02:07AM 35.9200 144.0390 258° West 420 483 41,000  Level FlightAware
02:08AM 35.9060 143.9480 259° West 417 480 41,000  Level FlightAware
02:08AM 35.8920 143.8620 259° West 417 480 41,000  Level FlightAware
02:09AM 35.8760 143.7810 256° West 416 479 41,000  Level FlightAware
02:10AM 35.8530 143.6740 255° West 413 475 41,000  Level FlightAware
02:10AM 35.8360 143.5870 256° West 413 475 41,000 -660 Level FlightAware
02:11AM 35.8230 143.5190 257° West 411 473 40,300 -600 Descending FlightAware
02:12AM 35.8090 143.4470 257° West 411 473 40,300 -1,680 Level FlightAware
02:12AM 35.7780 143.3040 255° West 416 479 37,700 -3,540 Descending FlightAware
02:13AM 35.7600 143.2100 257° West 423 487 35,000 -2,700 Descending FlightAware
02:14AM 35.7440 143.1330 256° West 425 489 34,500 -420 Descending FlightAware
02:14AM 35.7300 143.0610 257° West 425 489 34,500  Level FlightAware
02:15AM 35.7150 142.9900 255° West 425 489 34,500  Level FlightAware
02:15AM 35.7010 142.9180 257° West 425 489 34,500 -5,760 Level FlightAware
02:16AM 35.6690 142.7660 256° West 408 470 27,300 -6,600 Descending FlightAware
02:17AM 35.6530 142.6910 255° West 406 467 26,200 -1,980 Descending FlightAware
02:18AM 35.6290 142.5760 256° West 356 410 24,500 -1,980 Descending FlightAware
02:18AM 35.6190 142.4900 262° West 385 443 23,300 -1,740 Descending FlightAware
02:19AM 35.6160 142.4070 267° West 381 438 22,200 -1,800 Descending FlightAware
02:19AM 35.6120 142.3370 266° West 376 433 21,200 -1,620 Descending FlightAware
02:20AM 35.6080 142.2500 267° West 374 430 20,100 -1,560 Descending FlightAware
02:21AM 35.6050 142.1810 267° West 371 427 19,100 -900 Descending FlightAware
02:21AM 35.6010 142.1150 266° West 371 427 19,100 -1,260 Level FlightAware
02:21AM 35.6150 142.0790 296° West 360 414 18,200 -2,100 Descending FlightAware
02:22AM 35.6250 142.0260 283° West 362 417 17,800 -600 Descending FlightAware
02:23AM 35.6440 141.9270 283° West 357 411 17,400 -960 Descending FlightAware
02:23AM 35.6590 141.8550 284° West 351 404 16,500 -960 Descending FlightAware
02:24AM 35.6730 141.7780 283° West 347 399 16,200 -960 Descending FlightAware
02:25AM 35.6930 141.6830 285° West 349 402 15,100 -1,140 Descending FlightAware
02:25AM 35.7050 141.6180 283° West 351 404 14,700 -900 Descending FlightAware
02:26AM 35.7240 141.5190 283° West 350 403 13,900 -840 Descending FlightAware
02:27AM 35.7370 141.4520 283° West 350 403 13,500 -600 Descending FlightAware
02:27AM 35.7500 141.3850 283° West 345 397 13,200 -780 Descending FlightAware
02:28AM 35.7700 141.2830 284° West 311 358 12,400 -900 Descending FlightAware
02:29AM 35.7810 141.2240 283° West 295 339 11,900 -840 Descending FlightAware
02:30AM 35.7950 141.1510 283° West 275 316 11,300 -720 Descending FlightAware
02:30AM 35.8050 141.0990 283° West 269 310 11,000 -660 Descending FlightAware
02:31AM 35.8110 141.0610 281° West 270 311 10,700 -600 Descending FlightAware
02:31AM 35.8070 141.0380 258° West 275 316 10,600 -720 Descending FlightAware
02:31AM 35.7940 141.0160 234° Southwest 281 323 10,300 -1,680 Descending FlightAware
02:32AM 35.7680 140.9860 223° Southwest 288 331 9,500 -1,680 Descending FlightAware
02:32AM 35.7490 140.9650 222° Southwest 290 334 9,100 -1,140 Descending FlightAware
02:32AM 35.7390 140.9540 222° Southwest 290 334 8,900 -1,200 Descending FlightAware
02:33AM 35.7140 140.9270 221° Southwest 297 342 8,400 -1,440 Descending FlightAware
02:33AM 35.6990 140.9090 224° Southwest 292 336 8,000 -1,500 Descending FlightAware
02:33AM 35.6770 140.8850 222° Southwest 285 328 7,500 -1,140 Descending FlightAware
02:33AM 35.6710 140.8780 223° Southwest 285 328 7,400 -1,200 Descending FlightAware
02:34AM 35.6450 140.8490 222° Southwest 285 328 6,800 -1,620 Descending FlightAware
02:34AM 35.6190 140.8190 223° Southwest 287 330 6,200 -1,380 Descending FlightAware
02:35AM 35.5980 140.7950 223° Southwest 286 329 5,800 -1,200 Descending FlightAware
02:35AM 35.5810 140.7760 222° Southwest 290 334 5,400 -1,140 Descending FlightAware
02:35AM 35.5680 140.7620 221° Southwest 289 333 5,200 -1,080 Descending FlightAware
02:35AM 35.5440 140.7370 220° Southwest 281 323 4,800 -1,080 Descending FlightAware
02:36AM 35.5260 140.7250 208° Southwest 280 322 4,500 -1,020 Descending FlightAware
02:36AM 35.5100 140.7180 200° South 288 331 4,300 -660 Descending FlightAware
02:36AM 35.5020 140.7130 207° Southwest 286 329 4,300  Level FlightAware
02:36AM 35.4870 140.7000 215° Southwest 270 311 4,300  Level FlightAware
02:36AM 35.4760 140.6850 228° Southwest 264 304 4,300  Level FlightAware
02:37AM 35.4710 140.6760 236° Southwest 257 296 4,300  Level FlightAware
02:37AM 35.4680 140.6640 253° West 242 278 4,300  Level FlightAware
02:37AM 35.4660 140.6480 261° West 228 262 4,300  Level FlightAware
02:37AM 35.4700 140.6270 283° West 220 253 4,300  Level FlightAware
02:38AM 35.4810 140.6030 299° West 218 251 4,300  Level FlightAware
02:38AM 35.4890 140.5850 299° West 219 252 4,300  Level FlightAware
02:38AM 35.4990 140.5690 308° West 216 249 4,300  Level FlightAware
02:38AM 35.5030 140.5640 315° West 214 246 4,300  Level FlightAware
02:38AM 35.5130 140.5560 327° Northwest 211 243 4,300  Level FlightAware
02:39AM 35.5360 140.5400 330° Northwest 186 214 4,300  Level FlightAware
02:39AM 35.5500 140.5300 330° Northwest 185 213 4,300  Level FlightAware
02:39AM 35.5590 140.5230 328° Northwest 171 197 4,300 -240 Level FlightAware
02:40AM 35.5710 140.5150 332° Northwest 150 173 4,200 -660 Descending FlightAware
02:40AM 35.5830 140.5060 329° Northwest 155 178 3,900 -840 Descending FlightAware
02:40AM 35.5940 140.4980 329° Northwest 152 175 3,700 -780 Descending FlightAware
02:41AM 35.6000 140.4940 332° Northwest 152 175 3,500 -960 Descending FlightAware
02:41AM 35.6160 140.4820 329° Northwest 155 178 3,200 -900 Descending FlightAware
02:41AM 35.6330 140.4710 332° Northwest 158 182 2,800 -900 Descending FlightAware
02:42AM 35.6450 140.4620 329° Northwest 156 180 2,500 -1,020 Descending FlightAware
02:42AM 35.6610 140.4500 329° Northwest 164 189 2,200 -1,020 Descending FlightAware
02:42AM 35.6730 140.4410 329° Northwest 151 174 1,900 -840 Descending FlightAware
02:43AM 35.6830 140.4340 330° Northwest 145 167 1,700 -780 Descending FlightAware
02:43AM 35.6920 140.4280 332° Northwest 148 170 1,500 -780 Descending FlightAware
02:43AM 35.7060 140.4180 330° Northwest 144 166 1,200 -720 Descending FlightAware
02:44AM 35.7180 140.4090 329° Northwest 147 169 1,000 -600 Descending FlightAware
02:44AM 35.7240 140.4050 332° Northwest 147 169 900 -660 Descending FlightAware
02:44AM 35.7390 140.3940 329° Northwest 143 165 600 -360 Descending FlightAware
02:45AM 35.7520 140.3840 328° Northwest 143 165 600  Level FlightAware